Pagrindinis puslapis
METAR-TAF:

METAR-TAF

Oro uostai :

Tirgu Murešas, Rumunija

platuma: 46-32N, ilguma: 024-32E, Aukštis: 308 m

Dabartinis oras

Ataskaita buvo paskelbta 37 minutes, ne 04:00 UTC
Vėjas 6 kt iš Rytų
Temperatūra -2°C
Drėgmė 63%
Slėgis 1034 hPa
Matomumas 10 km arba daugiau

METAR: LRTM 070400Z AUTO 10006KT 9999 NCD M02/M08 Q1034

Laikas: 07:37 (04:37 UTC)

Prognozė

Ataskaita buvo paskelbta 2 valandos ir 37 minutes, ne 02:00 UTC
Prognozė galioja nuo 07 metu 03 UTC su 07 metu 12 UTC
Vėjas 8 kt iš Rytų
Matomumas 10 km arba daugiau
nėra debesų žemiau 1500 m ir nėra kamuolinių lietaus debesų

TAF: LRTM 070200Z 0703/0712 10008KT CAVOK

Orai ataskaitas ir orų prognozės (METAR, TAF).

turimą stotys yra geltonos ir raudonos taškus žemėlapyje.

Perkelti pele per norėdami pamatyti stoties vardą.

Tada spustelėkite, norėdami matyti oro stebėjimo ir prognozės.

Norėdami pakeisti žemėlapį: spustelėkite ant žalios mygtukų su juodo kryžiaus žemyn,; žalią mygtuką su brūkšneliu, jei norite nutolinti; arba žalių rodyklių gretimoms žemėlapius.


METAR-TAF: